createdAt,value
2023-05-21T06:35:39.272Z,99.90
2023-05-21T06:38:08.414Z,99.90
2023-05-21T06:40:35.820Z,99.90
2023-05-21T06:43:05.227Z,99.90
2023-05-21T06:45:51.625Z,99.90
2023-05-21T06:48:37.544Z,99.90
2023-05-21T06:51:04.913Z,99.90
2023-05-21T06:53:31.973Z,99.90
2023-05-21T06:55:58.996Z,99.90
2023-05-21T06:58:37.178Z,99.90
2023-05-21T07:01:04.916Z,99.90
2023-05-21T07:03:32.058Z,99.90
2023-05-21T07:05:59.178Z,99.90
2023-05-21T07:08:26.415Z,99.90
2023-05-21T07:10:53.803Z,99.90
2023-05-21T07:13:21.741Z,99.90
2023-05-21T07:15:48.697Z,99.90
2023-05-21T07:18:16.850Z,99.90
2023-05-21T07:20:44.816Z,99.90
2023-05-21T07:23:17.615Z,99.90
2023-05-21T07:25:46.300Z,99.90
2023-05-21T07:28:14.631Z,99.90
2023-05-21T07:30:41.608Z,99.90
2023-05-21T07:33:13.798Z,99.90
2023-05-21T07:35:41.032Z,99.90
2023-05-21T07:38:08.248Z,99.90
2023-05-21T07:40:35.157Z,99.90
2023-05-21T07:43:03.350Z,99.90
2023-05-21T07:45:31.468Z,99.90
2023-05-21T07:47:58.602Z,99.90
2023-05-21T07:50:26.890Z,99.90
2023-05-21T07:52:54.705Z,99.90
2023-05-21T07:55:21.856Z,99.90
2023-05-21T07:57:49.505Z,99.90
2023-05-21T08:00:19.126Z,99.90
2023-05-21T08:02:52.843Z,99.90
2023-05-21T08:05:21.455Z,99.90
2023-05-21T08:07:48.925Z,99.90
2023-05-21T08:10:18.485Z,99.90
2023-05-21T08:12:46.574Z,99.90
2023-05-21T08:15:13.703Z,99.90
2023-05-21T08:17:44.686Z,99.90
2023-05-21T08:20:13.488Z,99.90
2023-05-21T08:22:41.433Z,99.90
2023-05-21T08:25:09.480Z,99.90
2023-05-21T08:27:36.515Z,99.90
2023-05-21T08:30:04.973Z,99.90
2023-05-21T08:32:32.469Z,99.90
2023-05-21T08:35:00.811Z,99.90
2023-05-21T08:37:56.212Z,99.90
2023-05-21T08:40:55.940Z,99.90
2023-05-21T08:43:25.395Z,99.90
2023-05-21T08:45:59.129Z,99.90
2023-05-21T08:48:31.441Z,99.90
2023-05-21T08:51:00.188Z,99.90
2023-05-21T08:53:33.638Z,99.90
2023-05-21T08:56:01.950Z,99.90
2023-05-21T08:58:45.560Z,99.90
2023-05-21T09:01:14.739Z,99.90
2023-05-21T09:03:47.106Z,99.90
2023-05-21T09:06:14.574Z,99.90
2023-05-21T09:08:48.482Z,99.90
2023-05-21T09:11:24.556Z,99.90
2023-05-21T09:13:57.283Z,99.90
2023-05-21T09:16:31.713Z,99.90
2023-05-21T09:18:59.041Z,99.90
2023-05-21T09:21:33.391Z,99.90
2023-05-21T09:24:09.999Z,99.90
2023-05-21T09:26:37.910Z,99.90
2023-05-21T09:29:06.714Z,99.90
2023-05-21T09:31:33.637Z,99.90
2023-05-21T09:34:01.379Z,99.90
2023-05-21T09:36:29.709Z,99.90
2023-05-21T09:38:58.458Z,99.90
2023-05-21T09:41:33.709Z,99.90
2023-05-21T09:44:04.913Z,99.90
2023-05-21T09:46:40.488Z,99.90
2023-05-21T09:49:23.561Z,99.90
2023-05-21T09:51:50.893Z,99.90
2023-05-21T09:54:17.923Z,99.90
2023-05-21T09:56:44.993Z,99.90
2023-05-21T09:59:11.969Z,99.90
2023-05-21T10:01:38.905Z,99.90
2023-05-21T10:04:10.177Z,99.90
2023-05-21T10:06:47.874Z,99.90
2023-05-21T10:09:18.766Z,99.90
2023-05-21T10:11:46.761Z,99.90
2023-05-21T10:14:20.146Z,99.90
2023-05-21T10:16:48.203Z,99.90
2023-05-21T10:19:16.829Z,99.90
2023-05-21T10:21:45.173Z,99.90
2023-05-21T10:24:13.006Z,99.90
2023-05-21T10:26:41.549Z,99.90
2023-05-21T10:29:09.077Z,99.90
2023-05-21T10:31:38.654Z,99.90
2023-05-21T10:34:06.458Z,99.90
2023-05-21T10:36:34.316Z,99.90
2023-05-21T10:39:03.133Z,99.90
2023-05-21T10:41:40.686Z,99.90
2023-05-21T10:44:44.328Z,99.90
2023-05-21T10:47:30.088Z,99.90
2023-05-21T10:50:27.755Z,99.90
2023-05-21T10:53:40.714Z,99.90
2023-05-21T10:56:30.785Z,99.90
2023-05-21T10:59:23.749Z,99.90
2023-05-21T11:01:56.230Z,99.90
2023-05-21T11:04:26.882Z,99.90
2023-05-21T11:06:53.819Z,99.90
2023-05-21T11:09:20.919Z,99.90
2023-05-21T11:11:52.814Z,99.90
2023-05-21T11:14:31.618Z,99.90
2023-05-21T11:17:03.578Z,99.90
2023-05-21T11:19:38.315Z,99.90
2023-05-21T11:22:26.552Z,99.90
2023-05-21T11:24:55.240Z,99.90
2023-05-21T11:27:39.714Z,99.90
2023-05-21T11:30:19.517Z,99.90
2023-05-21T11:33:08.586Z,99.90
2023-05-21T11:35:54.370Z,99.90
2023-05-21T11:38:21.539Z,99.90
2023-05-21T11:40:55.440Z,99.90
2023-05-21T11:43:22.628Z,99.90
2023-05-21T11:45:52.776Z,99.90
2023-05-21T11:48:26.713Z,99.90
2023-05-21T11:50:54.763Z,99.90
2023-05-21T11:53:21.985Z,99.90
2023-05-21T11:55:49.042Z,99.90
2023-05-21T11:58:19.402Z,99.90
2023-05-21T12:00:46.411Z,99.90
2023-05-21T12:03:14.746Z,99.90
2023-05-21T12:05:49.413Z,99.90
2023-05-21T12:08:25.880Z,99.90
2023-05-21T12:11:00.271Z,99.90
2023-05-21T12:13:28.139Z,99.90
2023-05-21T12:15:55.293Z,99.90
2023-05-21T12:18:22.410Z,99.90
2023-05-21T12:20:51.997Z,99.90
2023-05-21T12:23:23.741Z,99.90
2023-05-21T12:25:52.251Z,99.90
2023-05-21T12:28:22.190Z,99.90
2023-05-21T12:30:49.139Z,99.90
2023-05-21T12:33:18.054Z,99.90
2023-05-21T12:35:50.334Z,99.90
2023-05-21T12:38:17.501Z,99.90
2023-05-21T12:40:45.722Z,99.90
2023-05-21T12:43:13.119Z,99.90
2023-05-21T12:45:40.631Z,99.90
2023-05-21T12:48:07.982Z,99.90
2023-05-21T12:50:36.087Z,99.90
2023-05-21T12:53:03.698Z,99.90
2023-05-21T12:55:31.600Z,99.90
2023-05-21T12:58:07.967Z,99.90
2023-05-21T13:00:35.301Z,99.90
2023-05-21T13:03:04.573Z,99.90
2023-05-21T13:05:31.797Z,99.90
2023-05-21T13:07:58.834Z,99.90
2023-05-21T13:10:25.702Z,99.90
2023-05-21T13:12:52.633Z,99.20
2023-05-21T13:15:19.812Z,99.50
2023-05-21T13:17:49.148Z,99.50
2023-05-21T13:20:21.194Z,99.70
2023-05-21T13:22:50.904Z,99.20
2023-05-21T13:25:22.295Z,99.60
2023-05-21T13:27:51.355Z,99.90
2023-05-21T13:30:19.447Z,99.60
2023-05-21T13:32:46.578Z,99.30
2023-05-21T13:35:15.279Z,99.00
2023-05-21T13:37:42.540Z,98.90
2023-05-21T13:40:11.472Z,99.00
2023-05-21T13:42:38.974Z,98.80
2023-05-21T13:45:11.191Z,98.80
2023-05-21T13:47:40.502Z,98.30
2023-05-21T13:50:09.218Z,98.80
2023-05-21T13:52:38.086Z,98.40
2023-05-21T13:55:05.475Z,98.40
2023-05-21T13:57:32.640Z,98.10
2023-05-21T13:59:59.875Z,97.70
2023-05-21T14:02:27.164Z,97.40
2023-05-21T14:04:54.228Z,98.00
2023-05-21T14:07:22.047Z,98.10
2023-05-21T14:09:49.069Z,97.70
2023-05-21T14:12:17.023Z,97.30
2023-05-21T14:14:44.439Z,97.30
2023-05-21T14:17:11.511Z,97.40
2023-05-21T14:19:38.442Z,97.20
2023-05-21T14:22:05.524Z,96.50
2023-05-21T14:24:32.555Z,96.50
2023-05-21T14:26:59.498Z,96.60
2023-05-21T14:29:26.464Z,96.40
2023-05-21T14:31:53.589Z,96.30
2023-05-21T14:34:20.599Z,96.50
2023-05-21T14:36:47.476Z,96.40
2023-05-21T14:39:14.493Z,96.60
2023-05-21T14:41:41.709Z,95.90
2023-05-21T14:44:08.641Z,96.10
2023-05-21T14:46:36.886Z,95.70
2023-05-21T14:49:04.043Z,96.10
2023-05-21T14:51:31.766Z,95.50
2023-05-21T14:53:59.064Z,95.80
2023-05-21T14:56:27.852Z,95.70
2023-05-21T14:58:55.510Z,95.70
2023-05-21T15:01:22.879Z,96.40
2023-05-21T15:03:50.061Z,95.70
2023-05-21T15:06:17.229Z,95.60
2023-05-21T15:08:44.236Z,95.90
2023-05-21T15:11:11.617Z,94.50
2023-05-21T15:13:39.219Z,95.10
2023-05-21T15:16:06.518Z,94.80
2023-05-21T15:18:33.706Z,94.30
2023-05-21T15:21:00.929Z,94.40
2023-05-21T15:23:28.073Z,94.90
2023-05-21T15:25:55.502Z,93.10
2023-05-21T15:28:23.151Z,93.40
2023-05-21T15:30:50.394Z,93.10
2023-05-21T15:33:17.642Z,93.70
2023-05-21T15:35:52.886Z,92.80
2023-05-21T15:38:21.822Z,92.80
2023-05-21T15:40:50.997Z,92.30
2023-05-21T15:43:20.758Z,91.50
2023-05-21T15:45:53.496Z,90.90
2023-05-21T15:48:27.816Z,91.30
2023-05-21T15:50:59.363Z,91.80
2023-05-21T15:53:27.455Z,92.00
2023-05-21T15:55:57.710Z,91.90
2023-05-21T15:58:28.572Z,91.30
2023-05-21T16:01:02.193Z,91.60
2023-05-21T16:03:31.326Z,90.70
2023-05-21T16:06:03.136Z,90.40
2023-05-21T16:08:38.116Z,90.00
2023-05-21T16:11:14.046Z,88.40
2023-05-21T16:13:44.010Z,88.00
2023-05-21T16:16:11.378Z,87.00
2023-05-21T16:18:43.385Z,88.60
2023-05-21T16:21:18.520Z,87.80
2023-05-21T16:23:47.161Z,85.80
2023-05-21T16:26:15.536Z,86.50
2023-05-21T16:28:45.928Z,86.40
2023-05-21T16:31:19.296Z,85.60
2023-05-21T16:33:54.991Z,84.70
2023-05-21T16:36:28.183Z,84.50
2023-05-21T16:39:01.628Z,83.70
2023-05-21T16:41:33.012Z,83.00
2023-05-21T16:44:01.228Z,83.30
2023-05-21T16:46:30.425Z,81.70
2023-05-21T16:48:58.685Z,82.70
2023-05-21T16:51:31.463Z,81.70
2023-05-21T16:54:00.685Z,78.80
2023-05-21T16:56:28.498Z,80.40
2023-05-21T16:59:00.685Z,80.00
2023-05-21T17:01:31.277Z,80.00
2023-05-21T17:04:00.298Z,79.70
2023-05-21T17:06:28.270Z,79.80
2023-05-21T17:08:55.404Z,80.00
2023-05-21T17:11:22.376Z,78.80
2023-05-21T17:13:49.306Z,79.00
2023-05-21T17:16:16.291Z,79.90
2023-05-21T17:18:43.264Z,80.50
2023-05-21T17:21:10.739Z,81.10
2023-05-21T17:23:37.688Z,81.30
2023-05-21T17:26:06.993Z,81.80
2023-05-21T17:28:34.049Z,82.00
2023-05-21T17:31:04.088Z,82.10
2023-05-21T17:33:31.497Z,83.30
2023-05-21T17:35:58.602Z,83.60
2023-05-21T17:38:25.612Z,83.50
2023-05-21T17:40:53.157Z,83.90
2023-05-21T17:43:20.084Z,83.50
2023-05-21T17:45:47.002Z,84.40
2023-05-21T17:48:13.911Z,84.30
2023-05-21T17:50:40.971Z,85.30
2023-05-21T17:53:07.852Z,85.50
2023-05-21T17:55:37.579Z,85.60
2023-05-21T17:58:05.689Z,86.20
2023-05-21T18:00:32.700Z,86.40
2023-05-21T18:02:59.656Z,86.90
2023-05-21T18:05:26.579Z,87.10
2023-05-21T18:07:55.806Z,88.10
2023-05-21T18:10:22.701Z,87.50
2023-05-21T18:12:49.725Z,87.70
2023-05-21T18:15:16.816Z,88.30
2023-05-21T18:17:44.139Z,91.90
2023-05-21T18:20:11.981Z,93.10
2023-05-21T18:22:38.920Z,93.90
2023-05-21T18:25:06.495Z,94.30
2023-05-21T18:27:33.323Z,94.80
2023-05-21T18:30:05.026Z,95.20
2023-05-21T18:32:33.307Z,95.30
2023-05-21T18:35:00.205Z,95.50
2023-05-21T18:37:27.383Z,95.80
2023-05-21T18:39:54.282Z,96.00
2023-05-21T18:42:21.214Z,96.20
2023-05-21T18:44:51.175Z,96.50
2023-05-21T18:47:18.224Z,96.70
2023-05-21T18:49:45.127Z,96.90
2023-05-21T18:52:12.062Z,97.00
2023-05-21T18:54:38.902Z,97.30
2023-05-21T18:57:06.080Z,97.30
2023-05-21T18:59:32.905Z,97.50
2023-05-21T19:01:59.802Z,97.60
2023-05-21T19:04:27.377Z,97.80
2023-05-21T19:06:54.258Z,97.90
2023-05-21T19:09:21.358Z,98.10
2023-05-21T19:11:48.410Z,98.20
2023-05-21T19:14:15.260Z,98.30
2023-05-21T19:16:42.215Z,98.50
2023-05-21T19:19:09.212Z,98.50
2023-05-21T19:21:36.607Z,98.50
2023-05-21T19:24:05.626Z,98.90
2023-05-21T19:26:33.154Z,99.20
2023-05-21T19:28:59.990Z,99.90
2023-05-21T19:31:26.915Z,99.90
2023-05-21T19:33:53.973Z,99.90
2023-05-21T19:36:22.294Z,99.90
2023-05-21T19:38:50.400Z,99.90
2023-05-21T19:41:18.048Z,99.90
2023-05-21T19:43:45.487Z,99.90
2023-05-21T19:46:12.655Z,99.90
2023-05-21T19:48:39.746Z,99.90
2023-05-21T19:51:06.682Z,99.90
2023-05-21T19:53:33.634Z,99.90
2023-05-21T19:56:00.580Z,99.90
2023-05-21T19:58:29.550Z,99.90
2023-05-21T20:00:59.246Z,99.90
2023-05-21T20:03:27.146Z,99.90
2023-05-21T20:05:54.704Z,99.90
2023-05-21T20:08:22.214Z,99.90
2023-05-21T20:10:51.716Z,99.90
2023-05-21T20:13:19.304Z,99.90
2023-05-21T20:15:47.838Z,99.90
2023-05-21T20:18:15.644Z,99.90
2023-05-21T20:20:43.381Z,99.90
2023-05-21T20:23:10.471Z,99.90
2023-05-21T20:25:37.380Z,99.90
2023-05-21T20:28:05.420Z,99.90
2023-05-21T20:30:33.931Z,99.90
2023-05-21T20:33:02.466Z,99.90
2023-05-21T20:35:30.114Z,99.90
2023-05-21T20:37:57.349Z,99.90
2023-05-21T20:40:24.339Z,99.90
2023-05-21T20:42:53.622Z,99.90
2023-05-21T20:45:21.995Z,99.90
2023-05-21T20:47:49.917Z,99.90
2023-05-21T20:50:25.810Z,99.90
2023-05-21T20:52:52.865Z,99.90
2023-05-21T20:55:20.926Z,99.90
2023-05-21T20:57:47.855Z,99.90
2023-05-21T21:00:16.192Z,99.90
2023-05-21T21:02:44.095Z,99.90
2023-05-21T21:05:11.443Z,99.90
2023-05-21T21:07:38.654Z,99.90
2023-05-21T21:10:06.008Z,99.90
2023-05-21T21:12:32.921Z,99.90
2023-05-21T21:14:59.804Z,99.90
2023-05-21T21:17:26.721Z,99.90
2023-05-21T21:19:53.744Z,99.90
2023-05-21T21:22:21.053Z,99.90
2023-05-21T21:24:48.175Z,99.90
2023-05-21T21:27:15.532Z,99.90
2023-05-21T21:29:43.516Z,99.90
2023-05-21T21:32:10.486Z,99.90
2023-05-21T21:34:37.342Z,99.90
2023-05-21T21:37:04.571Z,99.90
2023-05-21T21:39:31.457Z,99.90
2023-05-21T21:41:58.446Z,99.90
2023-05-21T21:44:25.376Z,99.90
2023-05-21T21:46:52.236Z,99.90
2023-05-21T21:49:19.305Z,99.90
2023-05-21T21:51:46.303Z,99.90
2023-05-21T21:54:13.186Z,99.90
2023-05-21T21:56:40.102Z,99.90
2023-05-21T21:59:06.962Z,99.90
2023-05-21T22:01:34.083Z,99.90
2023-05-21T22:04:01.149Z,99.90
2023-05-21T22:06:28.642Z,99.90
2023-05-21T22:08:55.756Z,99.90
2023-05-21T22:11:22.942Z,99.90
2023-05-21T22:13:49.815Z,99.90
2023-05-21T22:16:16.728Z,99.90
2023-05-21T22:18:43.767Z,99.90
2023-05-21T22:21:14.279Z,99.90
2023-05-21T22:23:41.445Z,99.90
2023-05-21T22:26:09.393Z,99.90
2023-05-21T22:28:36.793Z,99.90
2023-05-21T22:31:03.798Z,99.90
2023-05-21T22:33:30.797Z,99.90
2023-05-21T22:35:58.161Z,99.90
2023-05-21T22:38:25.808Z,99.90
2023-05-21T22:40:52.709Z,99.90
2023-05-21T22:43:19.673Z,99.90
2023-05-21T22:45:46.484Z,99.90
2023-05-21T22:48:14.324Z,99.90
2023-05-21T22:50:41.504Z,99.90
2023-05-21T22:53:08.615Z,99.90
2023-05-21T22:55:35.518Z,99.90
2023-05-21T22:58:02.508Z,99.90
2023-05-21T23:00:29.610Z,99.90
2023-05-21T23:02:56.630Z,99.90
2023-05-21T23:05:23.573Z,99.90
2023-05-21T23:07:50.553Z,99.90
2023-05-21T23:10:17.492Z,99.90
2023-05-21T23:12:44.380Z,99.90
2023-05-21T23:15:11.787Z,99.90
2023-05-21T23:17:38.977Z,99.90
2023-05-21T23:20:07.269Z,99.90
2023-05-21T23:22:34.797Z,99.90
2023-05-21T23:25:02.098Z,99.90
2023-05-21T23:27:29.331Z,99.90
2023-05-21T23:29:56.431Z,99.90
2023-05-21T23:32:23.867Z,99.90
2023-05-21T23:34:50.921Z,99.90
2023-05-21T23:37:17.938Z,99.90
2023-05-21T23:39:49.365Z,99.90
2023-05-21T23:42:17.330Z,99.90
2023-05-21T23:44:44.461Z,99.90
2023-05-21T23:47:11.390Z,99.90
2023-05-21T23:49:38.908Z,99.90
2023-05-21T23:52:06.470Z,99.90
2023-05-21T23:54:33.352Z,99.90
2023-05-21T23:57:00.224Z,99.90
2023-05-21T23:59:27.038Z,99.90
